Elista, Russia
Current Conditions -  °F | °C
As of 8:00 AM on Saturday 25 Oct 2014 (Local Time) from URWI Reporting Station
Overcast Overcast  
Wind Chill: 13°   Ceiling: 1400
Heat Index: 25°   Visibility: 6mi
Dew Point: 18°   Wind: 13mph
Humidity: 74%   Direction: 30°NNE
Pressure: 30.36"   Gusts: NA
Location:  46.32°N, 44.21°E
Report Text: URWI 250500Z 03006MPS 9999 OVC014 M04/M08 Q1028 NOSIG
Loading
Personal Weather Stations






























Interactive Weather Map
Tropical Storm Tracking
New forecast layout! Learn more

10-Day Weather Forecast

Advertisements
Track Severe Weather on mobile